Terminal Aerodrome Forecast
Issued by NWS

Home | Current Version | Previous Version | Text Only | Print | Product List | Glossary On
Versions: 1 2 3 4 5 6 7 8 9 10 11 12 13 14 15 16 17 18 19 20 21 22 23 24
000
FTUS43 KAPX 290318 AAA
TAFMBL
TAF AMD
KMBL 290318Z 2903/2924 16005KT P6SM SCT250
     FM290500 17006KT P6SM VCSH BKN150 WS015/19035KT
     FM290800 17005KT P6SM BKN150 WS015/19035KT
     FM291100 18005KT P6SM SCT140
     FM291400 20007KT P6SM BKN110
     FM291600 21011KT P6SM SCT060
     FM291800 22015G23KT P6SM VCSH SCT060
     FM291900 22015G23KT P6SM VCSH BKN060
      AMD LTD TO CLD VIS AND WIND=

USA.gov is the U.S. government's official web portal to all federal, state and local government web resources and services.